Time;durP1;ratioP1;P1;durP2;ratioP2;P2;SDS_P1;SDS_P2;PMS_P1;PMS_P2;Temp;Humidity;BMP_temperature;BMP_pressure;BME280_temperature;BME280_humidity;BME280_pressure;Samples;Min_cycle;Max_cycle;Signal;HPM_P1;HPM_P2
2022/03/29 00:05:22;;;;;;;44.50;12.35;;;;;;;;;;20844935;28;20049;-57
2022/03/29 00:15:25;;;;;;;41.03;11.88;;;;;;;;;;20844036;28;20046;-57
2022/03/29 00:25:27;;;;;;;42.05;11.65;;;;;;;;;;20843624;28;20062;-55
2022/03/29 00:35:29;;;;;;;41.95;12.07;;;;;;;;;;20842247;28;20129;-56
2022/03/29 00:45:31;;;;;;;39.42;11.38;;;;;;;;;;20841847;28;20052;-55
2022/03/29 00:55:33;;;;;;;40.70;12.70;;;;;;;;;;20841299;28;20055;-57
2022/03/29 01:05:35;;;;;;;37.42;11.85;;;;;;;;;;20839434;28;20042;-58
2022/03/29 01:15:37;;;;;;;44.83;13.60;;;;;;;;;;20840172;28;20057;-57
2022/03/29 01:25:41;;;;;;;46.77;12.47;;;;;;;;;;20838866;28;20062;-56
2022/03/29 01:35:55;;;;;;;40.97;12.23;;;;;;;;;;20838680;28;20048;-56
2022/03/29 01:46:01;;;;;;;40.90;11.55;;;;;;;;;;20837584;28;20049;-57
2022/03/29 01:56:08;;;;;;;38.60;11.30;;;;;;;;;;20838322;28;20473;-57
2022/03/29 02:06:12;;;;;;;39.17;10.15;;;;;;;;;;20836270;28;20119;-55
2022/03/29 02:16:14;;;;;;;36.85;10.23;;;;;;;;;;20834818;28;20080;-56
2022/03/29 02:26:18;;;;;;;40.03;11.07;;;;;;;;;;20833428;28;20490;-57
2022/03/29 02:36:21;;;;;;;44.22;12.68;;;;;;;;;;20833562;28;20052;-55
2022/03/29 02:46:24;;;;;;;43.63;11.02;;;;;;;;;;20832895;28;20442;-57
2022/03/29 02:56:27;;;;;;;44.60;10.57;;;;;;;;;;20833078;28;20096;-55
2022/03/29 03:06:30;;;;;;;42.88;11.13;;;;;;;;;;20831274;28;20092;-57
2022/03/29 03:16:35;;;;;;;43.22;11.70;;;;;;;;;;20829605;28;20136;-56
2022/03/29 03:26:44;;;;;;;45.47;11.10;;;;;;;;;;20829908;28;20060;-56
2022/03/29 03:36:47;;;;;;;43.67;10.57;;;;;;;;;;20831077;28;20049;-56
2022/03/29 03:46:49;;;;;;;47.90;11.75;;;;;;;;;;20829753;28;20406;-57
2022/03/29 03:56:52;;;;;;;44.58;11.52;;;;;;;;;;20829172;28;20060;-56
2022/03/29 04:06:55;;;;;;;47.92;10.63;;;;;;;;;;20828690;28;20053;-56
2022/03/29 04:16:57;;;;;;;47.40;11.50;;;;;;;;;;20828814;28;20056;-56
2022/03/29 04:27:00;;;;;;;43.75;10.05;;;;;;;;;;20827939;28;20108;-56
2022/03/29 04:37:02;;;;;;;50.22;11.88;;;;;;;;;;20829031;28;20045;-55
2022/03/29 04:47:06;;;;;;;56.33;10.75;;;;;;;;;;20842364;28;20457;-55
2022/03/29 04:57:07;;;;;;;40.25;9.40;;;;;;;;;;20840813;28;20056;-56
2022/03/29 05:07:09;;;;;;;50.60;11.38;;;;;;;;;;20842174;28;20049;-57
2022/03/29 05:17:12;;;;;;;49.88;12.05;;;;;;;;;;20841860;28;20050;-56
2022/03/29 05:27:14;;;;;;;46.97;11.70;;;;;;;;;;20839112;28;20099;-55
2022/03/29 05:37:16;;;;;;;48.13;10.82;;;;;;;;;;20839343;28;20042;-56
2022/03/29 05:57:39;;;;;;;55.78;12.18;;;;;;;;;;20836835;28;20050;-57
2022/03/29 06:07:41;;;;;;;43.22;12.45;;;;;;;;;;20836616;28;20049;-57
2022/03/29 06:17:44;;;;;;;41.90;12.32;;;;;;;;;;20835248;28;20486;-57
2022/03/29 06:27:45;;;;;;;47.83;12.23;;;;;;;;;;20833941;28;20053;-56
2022/03/29 06:37:47;;;;;;;38.28;11.75;;;;;;;;;;20833320;28;20088;-58
2022/03/29 06:47:50;;;;;;;47.42;11.05;;;;;;;;;;20832919;28;20482;-58
2022/03/29 06:57:52;;;;;;;52.08;12.48;;;;;;;;;;20833445;28;20119;-57
2022/03/29 07:07:54;;;;;;;41.63;12.48;;;;;;;;;;20830038;28;20136;-57
2022/03/29 07:17:57;;;;;;;56.10;12.55;;;;;;;;;;20830531;28;20050;-56
2022/03/29 07:27:59;;;;;;;40.65;13.52;;;;;;;;;;20829047;28;20065;-58
2022/03/29 07:38:03;;;;;;;48.95;14.70;;;;;;;;;;20829522;28;20473;-57
2022/03/29 07:48:06;;;;;;;42.58;12.40;;;;;;;;;;20829310;28;20108;-57
2022/03/29 07:58:08;;;;;;;47.20;12.93;;;;;;;;;;20828611;28;20077;-57
2022/03/29 08:08:11;;;;;;;44.95;13.30;;;;;;;;;;20827787;28;20049;-56
2022/03/29 08:18:15;;;;;;;42.83;11.97;;;;;;;;;;20838909;28;20049;-56
2022/03/29 08:28:19;;;;;;;46.85;12.57;;;;;;;;;;20843383;28;20062;-57
2022/03/29 08:38:22;;;;;;;42.13;12.20;;;;;;;;;;20842762;28;20128;-56
2022/03/29 08:48:25;;;;;;;28.00;11.85;;;;;;;;;;20842315;28;20057;-57
2022/03/29 08:58:27;;;;;;;42.72;12.95;;;;;;;;;;20841067;28;20444;-57
2022/03/29 09:08:41;;;;;;;37.10;10.80;;;;;;;;;;20851029;28;20497;-60
2022/03/29 09:18:43;;;;;;;;;;;;;;;;;;20856364;28;20494;-57
2022/03/29 09:28:51;;;;;;;39.00;11.98;;;;;;;;;;20847058;28;19925;-54
2022/03/29 09:38:56;;;;;;;44.47;12.45;;;;;;;;;;20838623;28;20045;-59
2022/03/29 09:49:00;;;;;;;46.97;12.77;;;;;;;;;;20852884;28;20049;-59
2022/03/29 09:59:05;;;;;;;40.10;11.35;;;;;;;;;;20837574;28;20060;-59
2022/03/29 10:09:26;;;;;;;48.75;10.73;;;;;;;;;;20836232;28;20057;-60
2022/03/29 10:19:28;;;;;;;42.65;10.27;;;;;;;;;;20836333;28;20049;-59
2022/03/29 10:29:31;;;;;;;40.25;9.35;;;;;;;;;;20834027;28;20549;-60
2022/03/29 10:39:43;;;;;;;43.67;10.75;;;;;;;;;;20833659;28;20413;-59
2022/03/29 10:49:49;;;;;;;44.50;11.70;;;;;;;;;;20832134;28;20054;-60
2022/03/29 10:59:58;;;;;;;50.72;10.93;;;;;;;;;;20831946;28;20539;-56
2022/03/29 11:10:23;;;;;;;36.40;9.68;;;;;;;;;;20831256;28;20395;-56
2022/03/29 11:20:29;;;;;;;45.70;8.75;;;;;;;;;;20830825;28;20156;-60
2022/03/29 11:30:34;;;;;;;48.88;10.65;;;;;;;;;;20830785;28;20096;-57
2022/03/29 11:40:36;;;;;;;39.45;10.43;;;;;;;;;;20830076;28;20045;-55
2022/03/29 11:50:38;;;;;;;44.42;10.07;;;;;;;;;;20841458;28;20053;-57
2022/03/29 12:00:40;;;;;;;55.47;12.30;;;;;;;;;;20855446;28;20049;-55
2022/03/29 12:10:42;;;;;;;47.72;10.68;;;;;;;;;;20855967;28;20144;-66
2022/03/29 12:20:45;;;;;;;52.10;10.98;;;;;;;;;;20855235;28;20053;-62
2022/03/29 12:30:49;;;;;;;47.60;10.18;;;;;;;;;;20855716;28;20072;-63
2022/03/29 12:40:57;;;;;;;45.10;10.50;;;;;;;;;;20854537;28;20481;-62
2022/03/29 12:51:04;;;;;;;46.85;10.23;;;;;;;;;;20854659;28;20501;-64
2022/03/29 13:01:07;;;;;;;41.63;11.45;;;;;;;;;;20848765;28;20387;-59
2022/03/29 13:11:16;;;;;;;49.47;10.32;;;;;;;;;;20839857;28;20108;-57
2022/03/29 13:21:19;;;;;;;42.35;8.98;;;;;;;;;;20839374;28;20061;-56
2022/03/29 13:31:30;;;;;;;38.17;9.53;;;;;;;;;;20839037;28;20410;-61
2022/03/29 13:41:32;;;;;;;44.13;10.20;;;;;;;;;;20838478;28;20053;-56
2022/03/29 13:51:34;;;;;;;40.30;10.13;;;;;;;;;;20835011;28;20164;-58
2022/03/29 14:01:37;;;;;;;43.15;10.90;;;;;;;;;;20835935;28;20482;-56
2022/03/29 14:11:39;;;;;;;44.30;11.55;;;;;;;;;;20835502;28;20045;-56
2022/03/29 14:21:41;;;;;;;47.25;10.35;;;;;;;;;;20835016;28;20497;-61
2022/03/29 14:31:44;;;;;;;44.67;11.10;;;;;;;;;;20833206;28;20406;-62
2022/03/29 14:41:47;;;;;;;42.80;10.05;;;;;;;;;;20833696;28;20053;-61
2022/03/29 14:51:49;;;;;;;34.60;9.13;;;;;;;;;;20833956;28;20053;-60
2022/03/29 15:01:51;;;;;;;38.17;9.13;;;;;;;;;;20831690;28;20053;-59
2022/03/29 15:11:53;;;;;;;31.60;8.75;;;;;;;;;;20831811;28;20481;-61
2022/03/29 15:21:55;;;;;;;40.63;10.77;;;;;;;;;;20829577;28;20158;-58
2022/03/29 15:31:57;;;;;;;30.52;8.15;;;;;;;;;;20829530;28;20077;-62
2022/03/29 15:41:59;;;;;;;40.03;8.80;;;;;;;;;;20828780;28;20053;-59
2022/03/29 15:52:02;;;;;;;27.83;8.35;;;;;;;;;;20828953;28;20073;-57
2022/03/29 16:02:04;;;;;;;33.40;8.88;;;;;;;;;;20828073;28;20057;-57
2022/03/29 16:12:08;;;;;;;31.60;8.15;;;;;;;;;;20827305;28;20045;-58
2022/03/29 16:22:11;;;;;;;34.22;8.40;;;;;;;;;;20826764;28;20049;-59
2022/03/29 16:32:13;;;;;;;32.45;8.68;;;;;;;;;;20828528;28;20474;-61
2022/03/29 16:42:15;;;;;;;28.05;7.90;;;;;;;;;;20842523;28;20473;-60
2022/03/29 16:52:20;;;;;;;33.40;9.25;;;;;;;;;;20841688;28;20049;-66
2022/03/29 17:02:23;;;;;;;31.98;8.98;;;;;;;;;;20840176;28;20045;-62
2022/03/29 17:12:26;;;;;;;33.95;9.43;;;;;;;;;;20839643;28;20127;-62
2022/03/29 17:22:28;;;;;;;36.87;9.77;;;;;;;;;;20839211;28;20052;-57
2022/03/29 17:32:31;;;;;;;32.55;7.90;;;;;;;;;;20837799;28;20770;-60
2022/03/29 17:42:34;;;;;;;27.00;8.43;;;;;;;;;;20860548;28;20045;-65
2022/03/29 17:52:36;;;;;;;29.35;8.45;;;;;;;;;;20914531;28;20048;-71
2022/03/29 18:02:39;;;;;;;25.00;7.85;;;;;;;;;;20915998;28;20140;-60
2022/03/29 18:12:41;;;;;;;35.33;9.38;;;;;;;;;;20914712;28;20037;-61
2022/03/29 18:22:44;;;;;;;33.97;7.28;;;;;;;;;;20913407;28;20080;-57
2022/03/29 18:32:46;;;;;;;27.27;7.47;;;;;;;;;;20913345;28;20097;-59
2022/03/29 18:42:48;;;;;;;25.20;7.13;;;;;;;;;;20915647;28;20091;-59
2022/03/29 18:52:50;;;;;;;23.08;6.68;;;;;;;;;;20913702;28;20045;-59
2022/03/29 19:02:56;;;;;;;16.40;5.50;;;;;;;;;;20914829;28;20052;-59
2022/03/29 19:13:01;;;;;;;12.23;4.40;;;;;;;;;;20916054;28;20053;-62
2022/03/29 19:23:04;;;;;;;14.15;4.28;;;;;;;;;;20912770;28;20102;-63
2022/03/29 19:33:06;;;;;;;14.43;3.55;;;;;;;;;;20910905;28;20045;-62
2022/03/29 19:43:27;;;;;;;11.23;3.20;;;;;;;;;;20910927;28;20115;-56
2022/03/29 19:53:30;;;;;;;14.98;3.60;;;;;;;;;;20911544;28;20060;-56
2022/03/29 20:03:32;;;;;;;13.80;3.53;;;;;;;;;;20909689;28;20166;-53
2022/03/29 20:13:34;;;;;;;13.15;4.15;;;;;;;;;;20920248;28;20049;-58
2022/03/29 20:23:39;;;;;;;11.05;4.20;;;;;;;;;;20926935;28;20057;-55
2022/03/29 20:33:42;;;;;;;9.90;3.53;;;;;;;;;;20927414;28;20041;-58
2022/03/29 20:43:46;;;;;;;7.97;3.58;;;;;;;;;;20925955;28;20135;-63
2022/03/29 20:53:48;;;;;;;11.65;3.95;;;;;;;;;;20924965;28;20049;-56
2022/03/29 21:03:50;;;;;;;15.50;4.65;;;;;;;;;;20925785;28;20417;-57
2022/03/29 21:13:55;;;;;;;22.00;6.32;;;;;;;;;;20924737;28;20505;-62
2022/03/29 21:23:58;;;;;;;29.73;7.53;;;;;;;;;;20921913;28;20053;-55
2022/03/29 21:33:59;;;;;;;22.00;7.15;;;;;;;;;;20922365;28;20520;-61
2022/03/29 21:44:03;;;;;;;29.95;7.60;;;;;;;;;;20921314;28;20135;-63
2022/03/29 21:54:05;;;;;;;24.92;7.00;;;;;;;;;;20921427;28;20391;-63
2022/03/29 22:04:08;;;;;;;27.63;7.68;;;;;;;;;;20920184;28;20478;-63
2022/03/29 22:14:11;;;;;;;17.55;6.47;;;;;;;;;;20919248;28;20128;-55
2022/03/29 22:24:13;;;;;;;20.25;6.53;;;;;;;;;;20916987;28;20456;-54
2022/03/29 22:34:15;;;;;;;21.05;7.43;;;;;;;;;;20916743;28;20128;-56
2022/03/29 22:44:17;;;;;;;25.50;8.38;;;;;;;;;;20917022;28;20056;-65
2022/03/29 22:54:20;;;;;;;31.38;9.02;;;;;;;;;;20915539;28;20060;-62
2022/03/29 23:04:23;;;;;;;26.77;8.38;;;;;;;;;;20914586;28;20094;-58
2022/03/29 23:14:25;;;;;;;20.30;6.80;;;;;;;;;;20914300;28;20171;-56
2022/03/29 23:24:27;;;;;;;22.15;7.30;;;;;;;;;;20913822;28;20064;-63
2022/03/29 23:34:29;;;;;;;20.65;8.02;;;;;;;;;;20913088;28;20053;-63
2022/03/29 23:44:32;;;;;;;24.42;7.63;;;;;;;;;;20912445;28;20055;-63
2022/03/29 23:54:34;;;;;;;26.58;7.63;;;;;;;;;;20912228;28;20144;-56
